< < Back
Terminal Aerodrome Forecast


Current Version              Previous Versions:   1  2  3  4  5  6  7  8  9  

Terminal Aerodrome Forecast

753
FTUS42 KJAX 210300 AAB
TAFJAX
TAF AMD
KJAX 210329Z 2103/2124 03007KT P6SM VCSH OVC006
     FM210800 01005KT 5SM BR VCSH OVC005
      TEMPO 2109/2113 3SM -RA BR
     FM211500 04006KT P6SM VCSH SCT005 BKN015 OVC150=

Latest METAR

951
SAUS80 KWBC 210900
MTRJAX
METAR KJAX 210856Z 03011KT 8SM OVC005 14/14 A3010 RMK AO2 SLP195 60001
T01390139 58009


USA.gov is the U.S. government's official web portal to all federal, state and local government web resources and services.